sensor_id;sensor_type;location;lat;lon;timestamp;pressure;altitude;pressure_sealevel;temperature;humidity
41636;BME280;27623;51.966;4.602;2022-07-01T00:00:49;101417.81;;;15.32;100.00
41636;BME280;27623;51.966;4.602;2022-07-01T00:03:15;101424.75;;;15.30;100.00
41636;BME280;27623;51.966;4.602;2022-07-01T00:05:40;101427.44;;;15.26;100.00
41636;BME280;27623;51.966;4.602;2022-07-01T00:08:08;101435.28;;;15.23;100.00
41636;BME280;27623;51.966;4.602;2022-07-01T00:10:36;101444.88;;;15.18;100.00
41636;BME280;27623;51.966;4.602;2022-07-01T00:13:03;101432.44;;;15.35;100.00
41636;BME280;27623;51.966;4.602;2022-07-01T00:15:29;101427.34;;;15.30;100.00
41636;BME280;27623;51.966;4.602;2022-07-01T00:17:54;101419.34;;;15.39;100.00
41636;BME280;27623;51.966;4.602;2022-07-01T00:20:19;101422.69;;;15.44;100.00
41636;BME280;27623;51.966;4.602;2022-07-01T00:22:45;101424.84;;;15.26;100.00
41636;BME280;27623;51.966;4.602;2022-07-01T00:25:13;101429.03;;;15.33;100.00
41636;BME280;27623;51.966;4.602;2022-07-01T00:27:39;101429.00;;;15.34;100.00
41636;BME280;27623;51.966;4.602;2022-07-01T00:30:07;101430.13;;;15.21;100.00
41636;BME280;27623;51.966;4.602;2022-07-01T00:32:33;101449.13;;;15.22;100.00
41636;BME280;27623;51.966;4.602;2022-07-01T00:34:58;101451.09;;;15.10;100.00
41636;BME280;27623;51.966;4.602;2022-07-01T00:37:23;101445.84;;;15.15;100.00
41636;BME280;27623;51.966;4.602;2022-07-01T00:39:49;101440.56;;;15.18;100.00
41636;BME280;27623;51.966;4.602;2022-07-01T00:42:14;101436.59;;;15.40;100.00
41636;BME280;27623;51.966;4.602;2022-07-01T00:44:40;101439.81;;;15.52;100.00
41636;BME280;27623;51.966;4.602;2022-07-01T00:47:10;101436.28;;;15.54;100.00
41636;BME280;27623;51.966;4.602;2022-07-01T00:49:37;101437.25;;;15.50;100.00
41636;BME280;27623;51.966;4.602;2022-07-01T00:52:03;101438.50;;;15.71;100.00
41636;BME280;27623;51.966;4.602;2022-07-01T00:54:31;101432.44;;;15.72;100.00
41636;BME280;27623;51.966;4.602;2022-07-01T00:56:57;101435.94;;;15.69;100.00
41636;BME280;27623;51.966;4.602;2022-07-01T00:59:22;101430.78;;;15.69;100.00
41636;BME280;27623;51.966;4.602;2022-07-01T01:01:48;101437.03;;;15.59;100.00
41636;BME280;27623;51.966;4.602;2022-07-01T01:04:13;101430.13;;;15.60;100.00
41636;BME280;27623;51.966;4.602;2022-07-01T01:06:39;101423.41;;;15.51;100.00
41636;BME280;27623;51.966;4.602;2022-07-01T01:09:05;101420.09;;;15.44;100.00
41636;BME280;27623;51.966;4.602;2022-07-01T01:11:31;101422.78;;;15.40;100.00
41636;BME280;27623;51.966;4.602;2022-07-01T01:13:57;101419.75;;;15.60;100.00
41636;BME280;27623;51.966;4.602;2022-07-01T01:16:23;101418.97;;;15.58;100.00
41636;BME280;27623;51.966;4.602;2022-07-01T01:18:49;101427.28;;;15.33;100.00
41636;BME280;27623;51.966;4.602;2022-07-01T01:21:15;101423.59;;;15.05;100.00
41636;BME280;27623;51.966;4.602;2022-07-01T01:23:41;101427.50;;;15.23;100.00
41636;BME280;27623;51.966;4.602;2022-07-01T01:26:21;101432.53;;;15.30;100.00
41636;BME280;27623;51.966;4.602;2022-07-01T01:28:48;101429.47;;;15.50;100.00
41636;BME280;27623;51.966;4.602;2022-07-01T01:31:14;101427.13;;;15.39;100.00
41636;BME280;27623;51.966;4.602;2022-07-01T01:33:41;101429.97;;;15.29;100.00
41636;BME280;27623;51.966;4.602;2022-07-01T01:36:06;101435.47;;;15.15;100.00
41636;BME280;27623;51.966;4.602;2022-07-01T01:38:36;101437.41;;;15.04;100.00
41636;BME280;27623;51.966;4.602;2022-07-01T01:41:04;101447.84;;;15.01;100.00
41636;BME280;27623;51.966;4.602;2022-07-01T01:43:29;101462.81;;;14.87;100.00
41636;BME280;27623;51.966;4.602;2022-07-01T01:45:55;101464.38;;;14.95;100.00
41636;BME280;27623;51.966;4.602;2022-07-01T01:48:20;101468.94;;;14.83;100.00
41636;BME280;27623;51.966;4.602;2022-07-01T01:50:46;101477.75;;;14.75;100.00
41636;BME280;27623;51.966;4.602;2022-07-01T01:53:11;101482.22;;;14.66;100.00
41636;BME280;27623;51.966;4.602;2022-07-01T01:55:36;101475.97;;;14.76;100.00
41636;BME280;27623;51.966;4.602;2022-07-01T01:58:02;101462.44;;;15.05;100.00
41636;BME280;27623;51.966;4.602;2022-07-01T02:00:27;101450.16;;;15.15;100.00
41636;BME280;27623;51.966;4.602;2022-07-01T02:02:54;101444.84;;;15.19;100.00
41636;BME280;27623;51.966;4.602;2022-07-01T02:05:19;101445.50;;;15.29;100.00
41636;BME280;27623;51.966;4.602;2022-07-01T02:07:47;101442.47;;;15.48;100.00
41636;BME280;27623;51.966;4.602;2022-07-01T02:10:13;101442.63;;;15.41;100.00
41636;BME280;27623;51.966;4.602;2022-07-01T02:12:41;101465.78;;;15.48;100.00
41636;BME280;27623;51.966;4.602;2022-07-01T02:15:07;101474.03;;;15.29;100.00
41636;BME280;27623;51.966;4.602;2022-07-01T02:17:33;101471.75;;;15.13;100.00
41636;BME280;27623;51.966;4.602;2022-07-01T02:19:59;101472.31;;;14.86;100.00
41636;BME280;27623;51.966;4.602;2022-07-01T02:22:24;101477.38;;;14.94;100.00
41636;BME280;27623;51.966;4.602;2022-07-01T02:24:50;101479.31;;;14.83;100.00
41636;BME280;27623;51.966;4.602;2022-07-01T02:27:15;101476.38;;;14.98;100.00
41636;BME280;27623;51.966;4.602;2022-07-01T02:29:41;101473.31;;;14.79;100.00
41636;BME280;27623;51.966;4.602;2022-07-01T02:32:26;101473.25;;;14.82;100.00
41636;BME280;27623;51.966;4.602;2022-07-01T02:34:52;101470.91;;;14.71;100.00
41636;BME280;27623;51.966;4.602;2022-07-01T02:37:17;101469.78;;;14.83;100.00
41636;BME280;27623;51.966;4.602;2022-07-01T02:39:43;101473.25;;;14.84;100.00
41636;BME280;27623;51.966;4.602;2022-07-01T02:42:08;101486.00;;;14.93;100.00
41636;BME280;27623;51.966;4.602;2022-07-01T02:44:50;101474.97;;;14.83;100.00
41636;BME280;27623;51.966;4.602;2022-07-01T02:47:16;101468.16;;;14.77;100.00
41636;BME280;27623;51.966;4.602;2022-07-01T02:49:41;101475.06;;;14.78;100.00
41636;BME280;27623;51.966;4.602;2022-07-01T02:52:07;101468.94;;;14.83;100.00
41636;BME280;27623;51.966;4.602;2022-07-01T02:54:32;101471.44;;;14.87;100.00
41636;BME280;27623;51.966;4.602;2022-07-01T02:56:58;101477.69;;;14.77;100.00
41636;BME280;27623;51.966;4.602;2022-07-01T02:59:23;101474.22;;;14.76;100.00
41636;BME280;27623;51.966;4.602;2022-07-01T03:01:49;101475.91;;;14.79;100.00
41636;BME280;27623;51.966;4.602;2022-07-01T03:04:14;101490.63;;;14.77;100.00
41636;BME280;27623;51.966;4.602;2022-07-01T03:06:40;101496.16;;;14.59;100.00
41636;BME280;27623;51.966;4.602;2022-07-01T03:09:06;101495.56;;;14.44;100.00
41636;BME280;27623;51.966;4.602;2022-07-01T03:11:32;101499.03;;;14.43;100.00
41636;BME280;27623;51.966;4.602;2022-07-01T03:13:57;101486.91;;;14.46;100.00
41636;BME280;27623;51.966;4.602;2022-07-01T03:16:22;101476.31;;;14.59;100.00
41636;BME280;27623;51.966;4.602;2022-07-01T03:18:48;101468.34;;;14.70;100.00
41636;BME280;27623;51.966;4.602;2022-07-01T03:21:14;101461.94;;;14.88;100.00
41636;BME280;27623;51.966;4.602;2022-07-01T03:23:39;101467.13;;;14.88;100.00
41636;BME280;27623;51.966;4.602;2022-07-01T03:26:05;101479.69;;;14.63;100.00
41636;BME280;27623;51.966;4.602;2022-07-01T03:28:30;101476.13;;;14.70;100.00
41636;BME280;27623;51.966;4.602;2022-07-01T03:30:57;101475.16;;;14.75;100.00
41636;BME280;27623;51.966;4.602;2022-07-01T03:33:22;101480.47;;;14.68;100.00
41636;BME280;27623;51.966;4.602;2022-07-01T03:35:47;101487.66;;;14.52;100.00
41636;BME280;27623;51.966;4.602;2022-07-01T03:38:13;101497.88;;;14.58;100.00
41636;BME280;27623;51.966;4.602;2022-07-01T03:40:39;101500.81;;;14.38;100.00
41636;BME280;27623;51.966;4.602;2022-07-01T03:43:05;101500.50;;;14.57;100.00
41636;BME280;27623;51.966;4.602;2022-07-01T03:45:30;101502.38;;;14.50;100.00
41636;BME280;27623;51.966;4.602;2022-07-01T03:47:57;101505.56;;;14.63;100.00
41636;BME280;27623;51.966;4.602;2022-07-01T03:50:24;101510.09;;;14.53;100.00
41636;BME280;27623;51.966;4.602;2022-07-01T03:52:50;101512.78;;;14.47;100.00
41636;BME280;27623;51.966;4.602;2022-07-01T03:55:37;101516.06;;;14.55;100.00
41636;BME280;27623;51.966;4.602;2022-07-01T03:58:03;101523.28;;;14.84;100.00
41636;BME280;27623;51.966;4.602;2022-07-01T04:00:32;101522.69;;;14.71;100.00
41636;BME280;27623;51.966;4.602;2022-07-01T04:03:00;101527.47;;;14.91;100.00
41636;BME280;27623;51.966;4.602;2022-07-01T04:05:28;101511.78;;;14.97;100.00
41636;BME280;27623;51.966;4.602;2022-07-01T04:07:53;101515.44;;;14.89;100.00
41636;BME280;27623;51.966;4.602;2022-07-01T04:10:19;101525.44;;;14.62;100.00
41636;BME280;27623;51.966;4.602;2022-07-01T04:12:45;101531.91;;;14.85;100.00
41636;BME280;27623;51.966;4.602;2022-07-01T04:15:11;101534.00;;;14.66;100.00
41636;BME280;27623;51.966;4.602;2022-07-01T04:17:36;101533.06;;;14.70;100.00
41636;BME280;27623;51.966;4.602;2022-07-01T04:20:02;101530.41;;;14.74;100.00
41636;BME280;27623;51.966;4.602;2022-07-01T04:22:28;101523.59;;;14.69;100.00
41636;BME280;27623;51.966;4.602;2022-07-01T04:25:03;101520.59;;;14.90;100.00
41636;BME280;27623;51.966;4.602;2022-07-01T04:27:32;101532.94;;;14.76;100.00
41636;BME280;27623;51.966;4.602;2022-07-01T04:29:57;101533.22;;;14.61;100.00
41636;BME280;27623;51.966;4.602;2022-07-01T04:32:23;101539.59;;;14.41;100.00
41636;BME280;27623;51.966;4.602;2022-07-01T04:34:48;101551.75;;;14.35;100.00
41636;BME280;27623;51.966;4.602;2022-07-01T04:37:14;101549.94;;;14.43;100.00
41636;BME280;27623;51.966;4.602;2022-07-01T04:39:40;101544.66;;;14.49;100.00
41636;BME280;27623;51.966;4.602;2022-07-01T04:42:06;101550.72;;;14.47;100.00
41636;BME280;27623;51.966;4.602;2022-07-01T04:44:36;101561.09;;;14.45;100.00
41636;BME280;27623;51.966;4.602;2022-07-01T04:47:03;101566.31;;;14.43;100.00
41636;BME280;27623;51.966;4.602;2022-07-01T04:49:29;101551.69;;;14.41;100.00
41636;BME280;27623;51.966;4.602;2022-07-01T04:51:56;101540.34;;;14.50;100.00
41636;BME280;27623;51.966;4.602;2022-07-01T04:54:22;101546.47;;;14.42;100.00
41636;BME280;27623;51.966;4.602;2022-07-01T04:56:48;101545.31;;;14.59;100.00
41636;BME280;27623;51.966;4.602;2022-07-01T04:59:17;101558.94;;;14.70;100.00
41636;BME280;27623;51.966;4.602;2022-07-01T05:01:44;101564.34;;;14.56;100.00
41636;BME280;27623;51.966;4.602;2022-07-01T05:04:11;101569.53;;;14.56;100.00
41636;BME280;27623;51.966;4.602;2022-07-01T05:06:37;101564.47;;;14.52;100.00
41636;BME280;27623;51.966;4.602;2022-07-01T05:09:03;101574.50;;;14.68;100.00
41636;BME280;27623;51.966;4.602;2022-07-01T05:11:29;101565.66;;;14.80;100.00
41636;BME280;27623;51.966;4.602;2022-07-01T05:13:54;101570.22;;;14.67;100.00
41636;BME280;27623;51.966;4.602;2022-07-01T05:16:19;101571.13;;;14.65;100.00
41636;BME280;27623;51.966;4.602;2022-07-01T05:18:45;101569.16;;;14.77;100.00
41636;BME280;27623;51.966;4.602;2022-07-01T05:21:29;101569.78;;;14.90;100.00
41636;BME280;27623;51.966;4.602;2022-07-01T05:24:13;101578.38;;;14.92;100.00
41636;BME280;27623;51.966;4.602;2022-07-01T05:26:38;101567.88;;;15.00;100.00
41636;BME280;27623;51.966;4.602;2022-07-01T05:29:07;101567.19;;;14.92;100.00
41636;BME280;27623;51.966;4.602;2022-07-01T05:31:32;101571.69;;;14.81;100.00
41636;BME280;27623;51.966;4.602;2022-07-01T05:33:58;101569.84;;;14.87;100.00
41636;BME280;27623;51.966;4.602;2022-07-01T05:36:23;101576.34;;;14.62;100.00
41636;BME280;27623;51.966;4.602;2022-07-01T05:38:49;101569.94;;;14.83;100.00
41636;BME280;27623;51.966;4.602;2022-07-01T05:41:14;101579.47;;;14.79;100.00
41636;BME280;27623;51.966;4.602;2022-07-01T05:43:41;101581.06;;;14.88;100.00
41636;BME280;27623;51.966;4.602;2022-07-01T05:46:06;101581.88;;;14.90;100.00
41636;BME280;27623;51.966;4.602;2022-07-01T05:48:31;101580.16;;;14.90;100.00
41636;BME280;27623;51.966;4.602;2022-07-01T05:50:57;101571.34;;;14.99;100.00
41636;BME280;27623;51.966;4.602;2022-07-01T05:53:22;101570.25;;;15.10;100.00
41636;BME280;27623;51.966;4.602;2022-07-01T05:55:47;101568.88;;;14.93;100.00
41636;BME280;27623;51.966;4.602;2022-07-01T05:58:14;101569.72;;;14.95;100.00
41636;BME280;27623;51.966;4.602;2022-07-01T06:00:41;101572.81;;;15.12;100.00
41636;BME280;27623;51.966;4.602;2022-07-01T06:03:08;101558.09;;;15.14;100.00
41636;BME280;27623;51.966;4.602;2022-07-01T06:05:34;101563.66;;;14.96;100.00
41636;BME280;27623;51.966;4.602;2022-07-01T06:07:59;101562.63;;;15.03;100.00
41636;BME280;27623;51.966;4.602;2022-07-01T06:10:25;101570.25;;;15.10;100.00
41636;BME280;27623;51.966;4.602;2022-07-01T06:12:51;101575.56;;;15.04;100.00
41636;BME280;27623;51.966;4.602;2022-07-01T06:15:16;101583.28;;;15.07;100.00
41636;BME280;27623;51.966;4.602;2022-07-01T06:17:42;101579.19;;;14.96;100.00
41636;BME280;27623;51.966;4.602;2022-07-01T06:20:08;101582.44;;;15.05;100.00
41636;BME280;27623;51.966;4.602;2022-07-01T06:22:36;101578.16;;;15.04;100.00
41636;BME280;27623;51.966;4.602;2022-07-01T06:25:02;101580.81;;;15.00;100.00
41636;BME280;27623;51.966;4.602;2022-07-01T06:27:30;101578.88;;;15.11;100.00
41636;BME280;27623;51.966;4.602;2022-07-01T06:29:55;101579.50;;;15.24;100.00
41636;BME280;27623;51.966;4.602;2022-07-01T06:32:20;101572.69;;;15.18;100.00
41636;BME280;27623;51.966;4.602;2022-07-01T06:34:46;101579.56;;;15.19;100.00
41636;BME280;27623;51.966;4.602;2022-07-01T06:37:13;101578.97;;;15.06;100.00
41636;BME280;27623;51.966;4.602;2022-07-01T06:39:38;101576.28;;;15.11;100.00
41636;BME280;27623;51.966;4.602;2022-07-01T06:42:05;101572.63;;;15.21;100.00
41636;BME280;27623;51.966;4.602;2022-07-01T06:44:33;101570.88;;;15.22;100.00
41636;BME280;27623;51.966;4.602;2022-07-01T06:46:58;101552.66;;;15.26;100.00
41636;BME280;27623;51.966;4.602;2022-07-01T06:49:24;101564.41;;;15.42;100.00
41636;BME280;27623;51.966;4.602;2022-07-01T06:51:50;101560.78;;;15.51;100.00
41636;BME280;27623;51.966;4.602;2022-07-01T06:54:15;101559.88;;;15.54;100.00
41636;BME280;27623;51.966;4.602;2022-07-01T06:56:43;101565.59;;;15.69;100.00
41636;BME280;27623;51.966;4.602;2022-07-01T06:59:09;101562.84;;;15.77;100.00
41636;BME280;27623;51.966;4.602;2022-07-01T07:01:34;101572.75;;;15.97;100.00
41636;BME280;27623;51.966;4.602;2022-07-01T07:03:59;101570.75;;;16.08;100.00
41636;BME280;27623;51.966;4.602;2022-07-01T07:06:28;101587.91;;;16.15;100.00
41636;BME280;27623;51.966;4.602;2022-07-01T07:08:54;101584.22;;;16.24;100.00
41636;BME280;27623;51.966;4.602;2022-07-01T07:11:19;101584.94;;;16.30;100.00
41636;BME280;27623;51.966;4.602;2022-07-01T07:13:45;101586.56;;;16.34;100.00
41636;BME280;27623;51.966;4.602;2022-07-01T07:16:11;101598.44;;;16.43;100.00
41636;BME280;27623;51.966;4.602;2022-07-01T07:18:36;101580.41;;;16.38;100.00
41636;BME280;27623;51.966;4.602;2022-07-01T07:21:02;101586.91;;;16.55;100.00
41636;BME280;27623;51.966;4.602;2022-07-01T07:23:28;101583.53;;;16.51;100.00
41636;BME280;27623;51.966;4.602;2022-07-01T07:25:54;101582.19;;;16.36;100.00
41636;BME280;27623;51.966;4.602;2022-07-01T07:28:20;101593.94;;;16.15;100.00
41636;BME280;27623;51.966;4.602;2022-07-01T07:30:45;101593.75;;;16.23;100.00
41636;BME280;27623;51.966;4.602;2022-07-01T07:33:11;101604.72;;;16.34;100.00
41636;BME280;27623;51.966;4.602;2022-07-01T07:35:37;101599.41;;;16.40;96.28
41636;BME280;27623;51.966;4.602;2022-07-01T07:38:02;101602.00;;;16.40;92.85
41636;BME280;27623;51.966;4.602;2022-07-01T07:40:28;101609.03;;;16.35;94.16
41636;BME280;27623;51.966;4.602;2022-07-01T07:42:53;101613.88;;;16.49;94.31
41636;BME280;27623;51.966;4.602;2022-07-01T07:45:19;101618.88;;;16.57;94.51
41636;BME280;27623;51.966;4.602;2022-07-01T07:47:47;101616.84;;;16.69;95.67
41636;BME280;27623;51.966;4.602;2022-07-01T07:50:16;101619.47;;;16.69;93.21
41636;BME280;27623;51.966;4.602;2022-07-01T07:52:42;101619.75;;;16.91;93.34
41636;BME280;27623;51.966;4.602;2022-07-01T07:55:09;101615.34;;;16.95;90.61
41636;BME280;27623;51.966;4.602;2022-07-01T07:57:36;101623.31;;;16.87;89.09
41636;BME280;27623;51.966;4.602;2022-07-01T08:00:03;101615.56;;;16.86;87.55
41636;BME280;27623;51.966;4.602;2022-07-01T08:02:29;101610.91;;;16.98;89.64
41636;BME280;27623;51.966;4.602;2022-07-01T08:04:54;101613.22;;;17.09;89.15
41636;BME280;27623;51.966;4.602;2022-07-01T08:07:20;101614.41;;;17.28;87.93
41636;BME280;27623;51.966;4.602;2022-07-01T08:09:46;101624.22;;;17.18;86.46
41636;BME280;27623;51.966;4.602;2022-07-01T08:12:14;101625.13;;;17.17;87.11
41636;BME280;27623;51.966;4.602;2022-07-01T08:14:42;101628.13;;;17.02;87.97
41636;BME280;27623;51.966;4.602;2022-07-01T08:17:08;101622.84;;;17.05;88.92
41636;BME280;27623;51.966;4.602;2022-07-01T08:19:33;101622.38;;;16.90;90.31
41636;BME280;27623;51.966;4.602;2022-07-01T08:21:59;101628.25;;;16.98;90.36
41636;BME280;27623;51.966;4.602;2022-07-01T08:24:24;101633.44;;;17.29;89.72
41636;BME280;27623;51.966;4.602;2022-07-01T08:26:50;101627.66;;;17.50;88.53
41636;BME280;27623;51.966;4.602;2022-07-01T08:29:15;101630.56;;;17.70;88.02
41636;BME280;27623;51.966;4.602;2022-07-01T08:31:41;101644.28;;;17.75;85.47
41636;BME280;27623;51.966;4.602;2022-07-01T08:34:09;101652.22;;;18.00;86.29
41636;BME280;27623;51.966;4.602;2022-07-01T08:36:35;101649.63;;;18.00;87.14
41636;BME280;27623;51.966;4.602;2022-07-01T08:39:04;101649.06;;;17.89;82.42
41636;BME280;27623;51.966;4.602;2022-07-01T08:41:30;101654.53;;;17.81;79.80
41636;BME280;27623;51.966;4.602;2022-07-01T08:43:55;101656.84;;;17.91;81.12
41636;BME280;27623;51.966;4.602;2022-07-01T08:46:26;101663.19;;;18.10;80.09
41636;BME280;27623;51.966;4.602;2022-07-01T08:48:52;101661.06;;;17.95;79.22
41636;BME280;27623;51.966;4.602;2022-07-01T08:51:18;101668.88;;;17.95;77.88
41636;BME280;27623;51.966;4.602;2022-07-01T08:53:43;101674.78;;;18.00;76.75
41636;BME280;27623;51.966;4.602;2022-07-01T08:56:08;101664.03;;;18.10;76.87
41636;BME280;27623;51.966;4.602;2022-07-01T08:58:57;101673.91;;;18.29;74.24
41636;BME280;27623;51.966;4.602;2022-07-01T09:01:24;101672.69;;;18.11;69.87
41636;BME280;27623;51.966;4.602;2022-07-01T09:03:52;101674.78;;;18.00;73.44
41636;BME280;27623;51.966;4.602;2022-07-01T09:06:28;101672.19;;;18.00;74.63
41636;BME280;27623;51.966;4.602;2022-07-01T09:08:54;101681.09;;;17.91;71.85
41636;BME280;27623;51.966;4.602;2022-07-01T09:11:22;101683.91;;;18.13;73.67
41636;BME280;27623;51.966;4.602;2022-07-01T09:14:08;101676.88;;;18.16;72.72
41636;BME280;27623;51.966;4.602;2022-07-01T09:16:45;101676.06;;;18.14;73.64
41636;BME280;27623;51.966;4.602;2022-07-01T09:19:13;101682.47;;;18.04;74.76
41636;BME280;27623;51.966;4.602;2022-07-01T09:21:39;101682.25;;;18.10;75.70
41636;BME280;27623;51.966;4.602;2022-07-01T09:26:56;101682.94;;;18.17;73.02
41636;BME280;27623;51.966;4.602;2022-07-01T09:29:31;101673.25;;;18.22;72.15
41636;BME280;27623;51.966;4.602;2022-07-01T09:32:04;101680.25;;;18.20;69.55
41636;BME280;27623;51.966;4.602;2022-07-01T09:34:45;101683.34;;;18.31;70.63
41636;BME280;27623;51.966;4.602;2022-07-01T09:37:14;101692.66;;;18.10;71.51
41636;BME280;27623;51.966;4.602;2022-07-01T09:39:54;101683.59;;;18.24;71.96
41636;BME280;27623;51.966;4.602;2022-07-01T09:42:21;101690.22;;;18.06;70.30
41636;BME280;27623;51.966;4.602;2022-07-01T09:45:02;101686.47;;;18.14;70.65
41636;BME280;27623;51.966;4.602;2022-07-01T09:47:33;101702.78;;;18.49;71.65
41636;BME280;27623;51.966;4.602;2022-07-01T09:49:59;101690.63;;;18.49;68.43
41636;BME280;27623;51.966;4.602;2022-07-01T09:52:25;101694.97;;;18.49;68.85
41636;BME280;27623;51.966;4.602;2022-07-01T09:54:51;101694.88;;;18.78;69.83
41636;BME280;27623;51.966;4.602;2022-07-01T09:57:18;101698.25;;;18.82;66.00
41636;BME280;27623;51.966;4.602;2022-07-01T09:59:44;101704.22;;;18.85;67.35
41636;BME280;27623;51.966;4.602;2022-07-01T10:02:12;101704.41;;;18.79;67.37
41636;BME280;27623;51.966;4.602;2022-07-01T10:04:40;101705.41;;;18.75;67.95
41636;BME280;27623;51.966;4.602;2022-07-01T10:12:33;101721.00;;;18.77;65.67
41636;BME280;27623;51.966;4.602;2022-07-01T10:15:01;101728.66;;;18.81;67.09
41636;BME280;27623;51.966;4.602;2022-07-01T10:17:29;101717.09;;;18.90;66.56
41636;BME280;27623;51.966;4.602;2022-07-01T10:19:56;101729.91;;;18.96;65.25
41636;BME280;27623;51.966;4.602;2022-07-01T10:22:28;101726.03;;;18.83;63.25
41636;BME280;27623;51.966;4.602;2022-07-01T10:24:54;101732.56;;;18.95;62.53
41636;BME280;27623;51.966;4.602;2022-07-01T10:27:22;101731.91;;;19.39;64.38
41636;BME280;27623;51.966;4.602;2022-07-01T10:29:48;101752.81;;;19.38;62.72
41636;BME280;27623;51.966;4.602;2022-07-01T10:34:48;101741.84;;;19.30;64.35
41636;BME280;27623;51.966;4.602;2022-07-01T10:37:16;101757.03;;;19.42;61.15
41636;BME280;27623;51.966;4.602;2022-07-01T10:39:56;101750.38;;;19.33;60.62
41636;BME280;27623;51.966;4.602;2022-07-01T10:42:57;101740.09;;;18.77;61.09
41636;BME280;27623;51.966;4.602;2022-07-01T10:45:23;101749.19;;;19.17;62.15
41636;BME280;27623;51.966;4.602;2022-07-01T10:48:21;101743.06;;;19.69;61.24
41636;BME280;27623;51.966;4.602;2022-07-01T10:50:48;101749.00;;;19.96;56.78
41636;BME280;27623;51.966;4.602;2022-07-01T10:53:13;101742.56;;;20.06;57.38
41636;BME280;27623;51.966;4.602;2022-07-01T10:55:44;101750.13;;;19.90;56.66
41636;BME280;27623;51.966;4.602;2022-07-01T10:58:10;101739.59;;;20.15;56.15
41636;BME280;27623;51.966;4.602;2022-07-01T11:00:40;101745.44;;;20.22;56.02
41636;BME280;27623;51.966;4.602;2022-07-01T11:03:15;101735.66;;;20.27;55.63
41636;BME280;27623;51.966;4.602;2022-07-01T11:05:43;101747.34;;;20.40;55.58
41636;BME280;27623;51.966;4.602;2022-07-01T11:08:09;101734.69;;;20.30;55.69
41636;BME280;27623;51.966;4.602;2022-07-01T11:10:35;101735.69;;;20.04;55.50
41636;BME280;27623;51.966;4.602;2022-07-01T11:13:02;101736.38;;;20.09;57.47
41636;BME280;27623;51.966;4.602;2022-07-01T11:15:29;101737.38;;;20.05;56.25
41636;BME280;27623;51.966;4.602;2022-07-01T11:17:56;101734.81;;;19.80;56.48
41636;BME280;27623;51.966;4.602;2022-07-01T11:20:22;101733.41;;;19.21;54.17
41636;BME280;27623;51.966;4.602;2022-07-01T11:22:48;101731.47;;;19.02;55.70
41636;BME280;27623;51.966;4.602;2022-07-01T11:25:14;101733.47;;;18.94;57.34
41636;BME280;27623;51.966;4.602;2022-07-01T11:27:45;101740.25;;;18.99;57.65
41636;BME280;27623;51.966;4.602;2022-07-01T11:30:12;101744.00;;;18.64;59.74
41636;BME280;27623;51.966;4.602;2022-07-01T11:32:41;101747.97;;;18.76;60.54
41636;BME280;27623;51.966;4.602;2022-07-01T11:35:24;101742.41;;;18.86;59.93
41636;BME280;27623;51.966;4.602;2022-07-01T11:38:13;101763.31;;;18.85;59.06
41636;BME280;27623;51.966;4.602;2022-07-01T11:40:59;101751.63;;;18.70;58.62
41636;BME280;27623;51.966;4.602;2022-07-01T11:43:27;101763.13;;;18.63;59.54
41636;BME280;27623;51.966;4.602;2022-07-01T11:45:54;101779.63;;;18.64;62.84
41636;BME280;27623;51.966;4.602;2022-07-01T11:50:55;101774.78;;;18.50;66.04
41636;BME280;27623;51.966;4.602;2022-07-01T11:53:20;101789.84;;;18.40;71.09
41636;BME280;27623;51.966;4.602;2022-07-01T11:55:46;101781.06;;;18.44;74.70
41636;BME280;27623;51.966;4.602;2022-07-01T11:58:11;101796.94;;;18.06;73.78
41636;BME280;27623;51.966;4.602;2022-07-01T12:00:36;101800.91;;;18.19;76.95
41636;BME280;27623;51.966;4.602;2022-07-01T12:03:03;101796.94;;;18.06;80.29
41636;BME280;27623;51.966;4.602;2022-07-01T12:05:28;101798.69;;;18.05;80.32
41636;BME280;27623;51.966;4.602;2022-07-01T12:07:54;101800.28;;;18.09;79.55
41636;BME280;27623;51.966;4.602;2022-07-01T12:10:25;101806.28;;;18.13;82.76
41636;BME280;27623;51.966;4.602;2022-07-01T12:12:51;101802.34;;;17.98;81.94
41636;BME280;27623;51.966;4.602;2022-07-01T12:15:16;101803.25;;;17.97;83.07
41636;BME280;27623;51.966;4.602;2022-07-01T12:17:42;101802.13;;;18.07;84.63
41636;BME280;27623;51.966;4.602;2022-07-01T12:20:08;101800.16;;;18.14;84.09
41636;BME280;27623;51.966;4.602;2022-07-01T12:22:33;101797.94;;;18.02;84.21
41636;BME280;27623;51.966;4.602;2022-07-01T12:25:11;101797.69;;;18.70;81.09
41636;BME280;27623;51.966;4.602;2022-07-01T12:27:38;101799.50;;;19.20;81.77
41636;BME280;27623;51.966;4.602;2022-07-01T12:30:07;101802.53;;;19.08;76.61
41636;BME280;27623;51.966;4.602;2022-07-01T12:32:35;101793.94;;;19.31;77.88
41636;BME280;27623;51.966;4.602;2022-07-01T12:35:04;101795.22;;;19.44;75.73
41636;BME280;27623;51.966;4.602;2022-07-01T12:37:37;101802.53;;;19.33;71.29
41636;BME280;27623;51.966;4.602;2022-07-01T12:40:20;101806.34;;;19.49;72.55
41636;BME280;27623;51.966;4.602;2022-07-01T12:42:47;101811.56;;;19.51;73.48
41636;BME280;27623;51.966;4.602;2022-07-01T12:45:15;101808.72;;;19.04;71.74
41636;BME280;27623;51.966;4.602;2022-07-01T12:47:45;101817.09;;;19.14;74.66
41636;BME280;27623;51.966;4.602;2022-07-01T12:50:25;101803.38;;;19.09;75.66
41636;BME280;27623;51.966;4.602;2022-07-01T12:55:25;101822.44;;;19.11;75.66
41636;BME280;27623;51.966;4.602;2022-07-01T12:57:55;101814.84;;;19.30;75.78
41636;BME280;27623;51.966;4.602;2022-07-01T13:00:25;101819.59;;;19.17;75.82